Terminal Aerodrome Forecast
Issued by NWS

Current Version | Previous Version | Text Only | Print | Product List | Glossary Off
Versions: 1 2 3 4 5 6 7 8 9 10 11 12 13 14 15 16 17 18 19 20 21

129
FTUS41 KILN 290900 AAA
TAFLCK
TAF AMD
KLCK 290900Z 2909/3006 09004KT P6SM -TSRA SCT028CB BKN080 OVC120
     FM291200 21011G18KT 6SM +SHRA VCTS OVC025CB
     FM291600 19014G20KT P6SM VCSH OVC025
     FM291800 27008KT P6SM VCSH OVC050
     FM292000 34007KT P6SM VCSH OVC090
     FM292100 10009KT P6SM BKN130=

USA.gov is the U.S. government's official web portal to all federal, state and local government web resources and services.